createdAt,value
2022-08-17T00:00:34.845Z,3.10
2022-08-17T00:03:22.441Z,2.90
2022-08-17T00:06:23.115Z,3.05
2022-08-17T00:09:08.146Z,3.17
2022-08-17T00:12:42.278Z,2.85
2022-08-17T00:14:59.015Z,3.10
2022-08-17T00:17:47.806Z,2.85
2022-08-17T00:20:35.056Z,3.40
2022-08-17T00:23:20.572Z,3.45
2022-08-17T00:26:06.050Z,3.20
2022-08-17T00:28:51.467Z,3.53
2022-08-17T00:31:38.075Z,3.30
2022-08-17T00:34:25.255Z,3.47
2022-08-17T00:37:13.181Z,3.17
2022-08-17T00:39:58.625Z,3.25
2022-08-17T00:42:45.393Z,2.80
2022-08-17T00:45:30.768Z,3.10
2022-08-17T00:48:27.280Z,3.90
2022-08-17T00:51:39.938Z,2.85
2022-08-17T00:54:30.349Z,3.70
2022-08-17T00:57:19.826Z,3.80
2022-08-17T01:00:32.366Z,3.47
2022-08-17T01:03:25.147Z,3.42
2022-08-17T01:06:10.948Z,3.13
2022-08-17T01:08:58.473Z,3.35
2022-08-17T01:11:45.411Z,2.78
2022-08-17T01:14:30.602Z,3.40
2022-08-17T01:17:15.914Z,3.50
2022-08-17T01:20:01.610Z,3.58
2022-08-17T01:22:46.872Z,3.53
2022-08-17T01:25:32.416Z,3.22
2022-08-17T01:28:53.449Z,3.38
2022-08-17T01:31:30.197Z,3.10
2022-08-17T01:34:16.975Z,3.28
2022-08-17T01:37:02.339Z,3.15
2022-08-17T01:39:55.829Z,3.42
2022-08-17T01:42:57.308Z,3.40
2022-08-17T01:45:45.980Z,3.40
2022-08-17T01:48:34.433Z,2.75
2022-08-17T01:51:20.976Z,3.30
2022-08-17T01:54:11.535Z,3.30
2022-08-17T01:56:57.048Z,3.20
2022-08-17T01:59:42.759Z,2.78
2022-08-17T02:02:30.659Z,3.47
2022-08-17T02:05:18.329Z,3.50
2022-08-17T02:08:04.235Z,3.22
2022-08-17T02:10:51.961Z,3.20
2022-08-17T02:13:38.545Z,3.25
2022-08-17T02:16:23.589Z,3.45
2022-08-17T02:19:15.612Z,3.40
2022-08-17T02:25:00.454Z,3.50
2022-08-17T02:27:47.205Z,3.65
2022-08-17T02:31:00.970Z,3.67
2022-08-17T02:33:42.857Z,3.65
2022-08-17T02:36:29.381Z,3.65
2022-08-17T02:39:14.667Z,4.10
2022-08-17T02:42:02.259Z,3.58
2022-08-17T02:44:47.930Z,3.90
2022-08-17T02:47:33.665Z,3.45
2022-08-17T02:50:22.367Z,3.78
2022-08-17T02:53:07.865Z,3.65
2022-08-17T02:55:53.643Z,3.67
2022-08-17T02:58:38.929Z,3.92
2022-08-17T03:01:24.181Z,3.72
2022-08-17T03:04:09.564Z,4.15
2022-08-17T03:06:54.934Z,4.13
2022-08-17T03:09:40.381Z,4.25
2022-08-17T03:12:29.064Z,4.60
2022-08-17T03:15:18.867Z,3.95
2022-08-17T03:18:04.266Z,4.28
2022-08-17T03:20:49.709Z,3.80
2022-08-17T03:23:42.119Z,4.43
2022-08-17T03:26:29.683Z,4.63
2022-08-17T03:29:18.879Z,3.90
2022-08-17T03:32:15.447Z,4.05
2022-08-17T03:35:00.703Z,4.35
2022-08-17T03:37:46.425Z,3.50
2022-08-17T03:40:55.579Z,3.85
2022-08-17T03:43:37.513Z,3.63
2022-08-17T03:46:41.467Z,3.80
2022-08-17T03:49:45.365Z,3.60
2022-08-17T03:52:51.885Z,3.90
2022-08-17T03:55:57.159Z,3.53
2022-08-17T03:58:42.440Z,3.72
2022-08-17T04:01:27.883Z,3.70
2022-08-17T04:04:13.588Z,3.67
2022-08-17T04:06:58.881Z,3.92
2022-08-17T04:09:44.925Z,3.92
2022-08-17T04:12:47.083Z,3.85
2022-08-17T04:15:33.328Z,3.88
2022-08-17T04:18:19.150Z,3.53
2022-08-17T04:21:04.587Z,3.90
2022-08-17T04:23:50.292Z,3.83
2022-08-17T04:26:53.441Z,3.53
2022-08-17T04:29:54.905Z,3.95
2022-08-17T04:33:04.182Z,3.95
2022-08-17T04:35:58.349Z,4.32
2022-08-17T04:38:45.488Z,3.57
2022-08-17T04:41:49.207Z,3.67
2022-08-17T04:44:37.637Z,4.03
2022-08-17T04:47:23.043Z,3.47
2022-08-17T04:50:09.009Z,4.40
2022-08-17T04:52:54.542Z,4.65
2022-08-17T04:55:40.873Z,4.10
2022-08-17T04:58:26.105Z,4.75
2022-08-17T05:01:11.653Z,4.57
2022-08-17T05:03:59.331Z,4.05
2022-08-17T05:06:45.153Z,4.22
2022-08-17T05:09:30.982Z,4.05
2022-08-17T05:12:16.500Z,3.80
2022-08-17T05:15:01.878Z,4.18
2022-08-17T05:17:47.282Z,5.15
2022-08-17T05:20:33.655Z,4.85
2022-08-17T05:23:21.855Z,5.40
2022-08-17T05:26:07.327Z,4.95
2022-08-17T05:29:00.669Z,5.63
2022-08-17T05:31:47.928Z,5.25
2022-08-17T05:34:33.312Z,5.68
2022-08-17T05:37:19.091Z,5.93
2022-08-17T05:40:05.047Z,6.65
2022-08-17T05:42:50.722Z,5.65
2022-08-17T05:45:54.489Z,5.15
2022-08-17T05:48:44.643Z,5.03
2022-08-17T05:51:55.690Z,4.57
2022-08-17T05:55:06.324Z,4.70
2022-08-17T05:57:59.895Z,4.28
2022-08-17T06:01:08.768Z,4.57
2022-08-17T06:04:34.338Z,4.95
2022-08-17T06:07:40.931Z,4.22
2022-08-17T06:10:38.083Z,4.25
2022-08-17T06:13:52.213Z,4.20
2022-08-17T06:16:41.549Z,4.07
2022-08-17T06:19:49.093Z,4.40
2022-08-17T06:22:39.674Z,4.43
2022-08-17T06:25:39.614Z,4.00
2022-08-17T06:28:40.326Z,4.43
2022-08-17T06:31:29.110Z,4.63
2022-08-17T06:34:15.004Z,4.60
2022-08-17T06:37:22.708Z,4.90
2022-08-17T06:40:33.569Z,4.28
2022-08-17T06:43:41.218Z,4.75
2022-08-17T06:46:42.785Z,3.65
2022-08-17T06:49:43.581Z,4.10
2022-08-17T06:52:46.977Z,4.60
2022-08-17T06:55:45.628Z,4.47
2022-08-17T06:58:33.161Z,4.55
2022-08-17T07:01:25.102Z,4.13
2022-08-17T07:07:40.672Z,4.70
2022-08-17T07:10:29.041Z,4.35
2022-08-17T07:13:25.708Z,3.83
2022-08-17T07:16:36.394Z,4.25
2022-08-17T07:19:24.890Z,3.88
2022-08-17T07:22:53.599Z,3.88
2022-08-17T07:25:40.430Z,3.80
2022-08-17T07:28:27.812Z,4.20
2022-08-17T07:31:14.296Z,4.32
2022-08-17T07:34:08.363Z,4.60
2022-08-17T07:37:05.190Z,3.92
2022-08-17T07:39:59.569Z,3.97
2022-08-17T07:43:18.801Z,3.50
2022-08-17T07:46:40.889Z,4.15
2022-08-17T07:49:32.447Z,4.28
2022-08-17T07:52:50.916Z,3.72
2022-08-17T07:55:41.385Z,4.07
2022-08-17T07:58:26.869Z,4.10
2022-08-17T08:01:15.577Z,3.97
2022-08-17T08:04:19.538Z,3.50
2022-08-17T08:07:17.435Z,3.70
2022-08-17T08:10:24.857Z,3.28
2022-08-17T08:13:14.543Z,3.67
2022-08-17T08:16:17.293Z,3.30
2022-08-17T08:19:02.509Z,3.75
2022-08-17T08:21:59.071Z,3.33
2022-08-17T08:24:59.775Z,3.33
2022-08-17T08:27:54.212Z,3.70
2022-08-17T08:30:47.283Z,3.00
2022-08-17T08:33:49.655Z,2.88
2022-08-17T08:40:13.033Z,2.47
2022-08-17T08:43:18.879Z,2.60
2022-08-17T08:46:32.322Z,2.42
2022-08-17T08:50:01.416Z,2.53
2022-08-17T08:52:50.497Z,1.92
2022-08-17T08:55:44.509Z,2.00
2022-08-17T08:58:59.168Z,2.33
2022-08-17T09:02:42.800Z,2.30
2022-08-17T09:05:49.017Z,2.72
2022-08-17T09:08:54.405Z,2.10
2022-08-17T09:12:02.759Z,2.60
2022-08-17T09:15:05.596Z,2.22
2022-08-17T09:19:03.544Z,2.10
2022-08-17T09:21:33.661Z,2.05
2022-08-17T09:24:33.313Z,2.40
2022-08-17T09:27:23.616Z,2.60
2022-08-17T09:30:10.912Z,2.10
2022-08-17T09:33:01.093Z,2.67
2022-08-17T09:35:53.807Z,2.17
2022-08-17T09:39:07.163Z,2.22
2022-08-17T09:42:02.651Z,2.60
2022-08-17T09:45:26.547Z,1.92
2022-08-17T09:48:20.805Z,2.47
2022-08-17T09:51:20.835Z,2.10
2022-08-17T09:54:37.539Z,2.60
2022-08-17T09:57:30.273Z,2.15
2022-08-17T10:00:28.036Z,2.47
2022-08-17T10:03:55.754Z,2.53
2022-08-17T10:07:15.963Z,2.35
2022-08-17T10:10:17.784Z,2.20
2022-08-17T10:13:29.947Z,2.33
2022-08-17T10:16:32.499Z,2.22
2022-08-17T10:19:51.313Z,2.67
2022-08-17T10:23:00.883Z,2.40
2022-08-17T10:26:04.733Z,2.50
2022-08-17T10:28:59.203Z,2.28
2022-08-17T10:31:59.117Z,2.72
2022-08-17T10:35:14.684Z,2.33
2022-08-17T10:38:06.638Z,2.78
2022-08-17T10:41:30.935Z,3.03
2022-08-17T10:44:40.272Z,2.80
2022-08-17T10:48:04.662Z,2.60
2022-08-17T10:51:00.113Z,2.42
2022-08-17T10:53:50.186Z,2.67
2022-08-17T10:56:48.157Z,2.35
2022-08-17T10:59:36.642Z,2.30
2022-08-17T11:02:50.000Z,2.35
2022-08-17T11:06:06.958Z,2.67
2022-08-17T11:09:27.672Z,2.38
2022-08-17T11:12:12.646Z,2.63
2022-08-17T11:15:38.142Z,2.38
2022-08-17T11:18:23.271Z,2.45
2022-08-17T11:21:39.207Z,3.38
2022-08-17T11:24:32.256Z,2.95
2022-08-17T11:27:34.295Z,2.83
2022-08-17T11:30:53.714Z,2.53
2022-08-17T11:33:52.462Z,2.75
2022-08-17T11:36:49.257Z,2.88
2022-08-17T11:39:42.588Z,2.80
2022-08-17T11:42:52.086Z,2.40
2022-08-17T11:46:16.435Z,2.75
2022-08-17T11:49:52.800Z,2.72
2022-08-17T11:52:42.213Z,3.13
2022-08-17T11:55:36.290Z,2.67
2022-08-17T11:58:29.436Z,2.60
2022-08-17T12:01:23.499Z,2.60
2022-08-17T12:04:29.194Z,2.40
2022-08-17T12:07:20.472Z,3.00
2022-08-17T12:12:53.061Z,2.50
2022-08-17T12:15:44.989Z,2.28
2022-08-17T12:18:35.598Z,2.38
2022-08-17T12:21:40.721Z,2.10
2022-08-17T12:24:56.272Z,2.13
2022-08-17T12:28:05.484Z,2.70
2022-08-17T12:30:53.339Z,2.67
2022-08-17T12:33:44.638Z,2.67
2022-08-17T12:36:32.411Z,2.58
2022-08-17T12:39:25.055Z,2.60
2022-08-17T12:42:23.489Z,2.53
2022-08-17T12:45:26.975Z,2.58
2022-08-17T12:48:21.481Z,2.45
2022-08-17T12:51:08.122Z,2.65
2022-08-17T12:53:55.577Z,2.60
2022-08-17T12:56:44.603Z,2.10
2022-08-17T12:59:33.331Z,2.40
2022-08-17T13:02:32.728Z,2.40
2022-08-17T13:05:38.149Z,2.30
2022-08-17T13:08:29.161Z,2.40
2022-08-17T13:11:14.493Z,2.35
2022-08-17T13:14:09.359Z,2.30
2022-08-17T13:16:59.392Z,2.17
2022-08-17T13:19:50.746Z,2.30
2022-08-17T13:25:21.636Z,2.30
2022-08-17T13:28:16.860Z,2.40
2022-08-17T13:31:30.039Z,2.50
2022-08-17T13:34:26.652Z,2.83
2022-08-17T13:37:29.617Z,2.63
2022-08-17T13:40:15.284Z,2.42
2022-08-17T13:43:03.271Z,2.30
2022-08-17T13:45:51.209Z,2.55
2022-08-17T13:48:36.641Z,2.20
2022-08-17T13:51:46.189Z,2.45
2022-08-17T13:54:33.562Z,2.47
2022-08-17T13:57:24.674Z,2.05
2022-08-17T14:00:18.658Z,2.47
2022-08-17T14:03:05.482Z,2.15
2022-08-17T14:05:52.428Z,2.22
2022-08-17T14:08:37.729Z,2.65
2022-08-17T14:11:23.936Z,2.20
2022-08-17T14:14:09.144Z,2.15
2022-08-17T14:16:54.960Z,2.30
2022-08-17T14:19:40.347Z,2.78
2022-08-17T14:22:30.368Z,2.40
2022-08-17T14:25:24.461Z,2.60
2022-08-17T14:28:09.550Z,2.35
2022-08-17T14:30:55.383Z,2.40
2022-08-17T14:33:40.973Z,2.45
2022-08-17T14:36:26.419Z,2.08
2022-08-17T14:39:13.299Z,2.50
2022-08-17T14:42:00.343Z,2.78
2022-08-17T14:44:45.653Z,2.10
2022-08-17T14:47:31.093Z,2.72
2022-08-17T14:50:19.747Z,2.60
2022-08-17T14:53:07.620Z,2.53
2022-08-17T14:55:52.915Z,2.50
2022-08-17T14:58:38.890Z,2.60
2022-08-17T15:01:26.389Z,3.08
2022-08-17T15:04:14.833Z,2.25
2022-08-17T15:07:00.017Z,2.78
2022-08-17T15:09:45.543Z,2.50
2022-08-17T15:12:33.608Z,2.72
2022-08-17T15:15:20.174Z,2.40
2022-08-17T15:18:05.208Z,2.38
2022-08-17T15:20:52.716Z,2.60
2022-08-17T15:23:39.683Z,2.65
2022-08-17T15:26:26.437Z,2.40
2022-08-17T15:29:11.742Z,2.58
2022-08-17T15:32:00.544Z,2.63
2022-08-17T15:34:45.848Z,2.50
2022-08-17T15:37:34.093Z,2.90
2022-08-17T15:40:19.432Z,2.88
2022-08-17T15:43:11.216Z,2.65
2022-08-17T15:45:59.898Z,2.47
2022-08-17T15:48:50.628Z,2.50
2022-08-17T15:51:36.107Z,2.70
2022-08-17T15:54:22.893Z,2.35
2022-08-17T15:57:08.509Z,3.25
2022-08-17T15:59:58.739Z,2.97
2022-08-17T16:03:16.082Z,2.63
2022-08-17T16:05:50.624Z,2.67
2022-08-17T16:08:36.905Z,3.05
2022-08-17T16:11:22.743Z,2.33
2022-08-17T16:14:08.154Z,2.58
2022-08-17T16:16:53.591Z,2.83
2022-08-17T16:19:40.450Z,2.50
2022-08-17T16:22:30.922Z,2.80
2022-08-17T16:25:21.887Z,2.60
2022-08-17T16:28:07.485Z,2.53
2022-08-17T16:30:52.908Z,2.70
2022-08-17T16:33:39.710Z,3.10
2022-08-17T16:36:24.840Z,2.88
2022-08-17T16:39:10.575Z,2.55
2022-08-17T16:41:56.435Z,2.30
2022-08-17T16:44:42.008Z,2.50
2022-08-17T16:47:27.500Z,2.50
2022-08-17T16:50:15.514Z,2.60
2022-08-17T16:53:06.931Z,1.80
2022-08-17T16:55:52.244Z,2.80
2022-08-17T16:58:39.321Z,2.67
2022-08-17T17:01:25.547Z,2.47
2022-08-17T17:04:16.715Z,2.83
2022-08-17T17:07:55.394Z,2.30
2022-08-17T17:10:44.930Z,3.03
2022-08-17T17:13:44.714Z,2.30
2022-08-17T17:16:29.995Z,2.30
2022-08-17T17:19:34.557Z,2.83
2022-08-17T17:22:25.752Z,2.70
2022-08-17T17:25:44.483Z,2.60
2022-08-17T17:28:46.186Z,2.47
2022-08-17T17:31:39.328Z,2.72
2022-08-17T17:34:29.414Z,3.08
2022-08-17T17:37:20.153Z,2.53
2022-08-17T17:40:32.655Z,2.85
2022-08-17T17:43:38.221Z,2.50
2022-08-17T17:46:29.465Z,2.70
2022-08-17T17:49:17.435Z,2.97
2022-08-17T17:52:22.617Z,2.63
2022-08-17T17:55:13.681Z,2.58
2022-08-17T17:58:35.726Z,2.63
2022-08-17T18:01:35.842Z,2.55
2022-08-17T18:04:37.489Z,3.13
2022-08-17T18:07:54.319Z,2.22
2022-08-17T18:10:57.026Z,2.28
2022-08-17T18:14:02.057Z,2.30
2022-08-17T18:16:54.967Z,2.70
2022-08-17T18:19:41.377Z,2.70
2022-08-17T18:22:27.738Z,2.78
2022-08-17T18:25:53.210Z,3.10
2022-08-17T18:28:43.898Z,2.92
2022-08-17T18:31:29.219Z,2.70
2022-08-17T18:34:45.876Z,2.45
2022-08-17T18:37:45.106Z,2.38
2022-08-17T18:40:35.112Z,2.88
2022-08-17T18:43:26.440Z,3.00
2022-08-17T18:46:41.100Z,3.03
2022-08-17T18:49:28.352Z,2.95
2022-08-17T18:52:29.537Z,3.28
2022-08-17T18:55:20.689Z,2.33
2022-08-17T18:58:24.199Z,2.63
2022-08-17T19:01:20.336Z,2.92
2022-08-17T19:04:12.454Z,2.60
2022-08-17T19:10:46.234Z,2.65
2022-08-17T19:13:57.427Z,3.00
2022-08-17T19:16:57.172Z,3.95
2022-08-17T19:20:04.969Z,2.95
2022-08-17T19:22:56.415Z,2.88
2022-08-17T19:25:49.075Z,2.58
2022-08-17T19:28:43.668Z,2.78
2022-08-17T19:31:33.801Z,3.80
2022-08-17T19:34:33.237Z,2.97
2022-08-17T19:37:31.950Z,2.90
2022-08-17T19:40:51.835Z,3.40
2022-08-17T19:43:56.432Z,3.08
2022-08-17T19:47:00.669Z,2.70
2022-08-17T19:50:04.727Z,2.85
2022-08-17T19:52:55.972Z,3.00
2022-08-17T19:56:02.464Z,2.88
2022-08-17T19:58:57.881Z,2.80
2022-08-17T20:02:01.349Z,3.90
2022-08-17T20:04:50.245Z,3.00
2022-08-17T20:07:50.944Z,3.67
2022-08-17T20:10:48.135Z,3.17
2022-08-17T20:13:44.135Z,4.55
2022-08-17T20:16:35.363Z,3.97
2022-08-17T20:19:41.275Z,3.47
2022-08-17T20:22:46.759Z,3.58
2022-08-17T20:25:46.624Z,3.17
2022-08-17T20:28:35.144Z,3.60
2022-08-17T20:31:46.614Z,3.10
2022-08-17T20:34:37.356Z,3.17
2022-08-17T20:37:22.794Z,2.85
2022-08-17T20:40:09.093Z,3.05
2022-08-17T20:42:55.957Z,2.95
2022-08-17T20:45:46.323Z,2.97
2022-08-17T20:48:39.540Z,3.25
2022-08-17T20:51:34.751Z,2.97
2022-08-17T20:54:19.834Z,3.80
2022-08-17T20:57:09.193Z,3.15
2022-08-17T21:00:17.133Z,3.55
2022-08-17T21:03:22.510Z,3.22
2022-08-17T21:06:11.136Z,3.00
2022-08-17T21:09:12.655Z,3.90
2022-08-17T21:12:04.705Z,3.75
2022-08-17T21:14:59.911Z,3.63
2022-08-17T21:18:11.239Z,3.20
2022-08-17T21:21:18.018Z,3.40
2022-08-17T21:24:34.158Z,3.10
2022-08-17T21:27:34.429Z,3.28
2022-08-17T21:30:28.714Z,3.33
2022-08-17T21:33:18.518Z,3.17
2022-08-17T21:36:11.691Z,2.80
2022-08-17T21:39:08.612Z,3.17
2022-08-17T21:41:56.378Z,3.25
2022-08-17T21:44:48.556Z,3.63
2022-08-17T21:47:34.857Z,3.40
2022-08-17T21:50:24.071Z,3.75
2022-08-17T21:53:14.627Z,3.35
2022-08-17T21:56:00.270Z,3.58
2022-08-17T21:58:54.391Z,3.95
2022-08-17T22:01:42.694Z,3.35
2022-08-17T22:04:37.402Z,3.40
2022-08-17T22:07:39.578Z,3.30
2022-08-17T22:13:24.369Z,3.03
2022-08-17T22:16:28.803Z,3.95
2022-08-17T22:19:15.291Z,4.00
2022-08-17T22:22:32.502Z,3.92
2022-08-17T22:25:22.003Z,4.20
2022-08-17T22:28:09.563Z,3.70
2022-08-17T22:31:05.846Z,4.03
2022-08-17T22:34:00.233Z,3.75
2022-08-17T22:36:45.859Z,4.72
2022-08-17T22:39:33.718Z,3.47
2022-08-17T22:42:19.334Z,3.83
2022-08-17T22:45:08.259Z,3.28
2022-08-17T22:47:57.000Z,3.50
2022-08-17T22:50:42.380Z,3.60
2022-08-17T22:53:47.270Z,3.90
2022-08-17T22:56:51.809Z,3.53
2022-08-17T22:59:46.374Z,3.53
2022-08-17T23:02:34.450Z,3.72
2022-08-17T23:05:21.504Z,4.10
2022-08-17T23:08:06.620Z,3.60
2022-08-17T23:10:51.996Z,3.50
2022-08-17T23:13:37.770Z,3.70
2022-08-17T23:16:28.437Z,3.30
2022-08-17T23:19:18.030Z,3.97
2022-08-17T23:22:06.284Z,3.75
2022-08-17T23:24:51.573Z,3.35
2022-08-17T23:27:36.815Z,4.18
2022-08-17T23:30:25.303Z,3.90
2022-08-17T23:33:29.790Z,3.70
2022-08-17T23:36:16.839Z,3.92
2022-08-17T23:39:02.176Z,4.13
2022-08-17T23:41:48.303Z,4.00
2022-08-17T23:44:37.880Z,5.05
2022-08-17T23:47:23.127Z,4.60
2022-08-17T23:50:08.900Z,4.28
2022-08-17T23:52:54.246Z,4.45
2022-08-17T23:55:39.918Z,3.75
2022-08-17T23:58:25.286Z,4.05
